Lyon Satolas, France

11:06 AM CEST on September 01, 2015 (GMT +0200)
Saint Exupery | | Change Station
CLOSE
Current Station
Airport
Location: Lyon Satolas,
Elevation: 787 ft
Nearby Weather Stations

Elev 787 ft 45.73 °N, 5.08 °E | Updated 6 minutes ago

Mostly Cloudy
Mostly Cloudy
73 °F
Feels Like 73 °F
N
12
Wind Variable Wind from South

Today
High -- | Low -- °F
--% Chance of Precip.
Yesterday
High -- | Low -- °F
Precip. -- in
7:00 AM 8:18 PM
Waning Gibbous, 90% visible
Pressure 29.98 in
Visibility 6.2 miles
Clouds Few 5000 ft
Mostly Cloudy 6000 ft
Dew Point 57 °F
Humidity 57%
Rainfall 0.00 in
Snow Depth Not available.
UV 3 out of 12
Pollen Not available.
Air Quality Not available.
Flu Activity Not available.
METAR LFLL 010900Z 19010KT 9999 FEW050TCU BKN060 23/14 Q1015 NOSIG
Pressure 29.98 in
Visibility 6.2 miles
Clouds Few 5000 ft
Mostly Cloudy 6000 ft
Dew Point 57 °F
Humidity 57%
Rainfall 0.00 in
Snow Depth Not available.
UV 3 out of 12
Pollen Not available.
Air Quality Not available.
Flu Activity Not available.
METAR LFLL 010900Z 19010KT 9999 FEW050TCU BKN060 23/14 Q1015 NOSIG

10-Day Weather Forecast

×

Almanac

Astronomy

Sep. 01, 2015 Rise Set
Actual Time
Civil Twilight
Nautical Twilight
Astronomical Twilight
Moon
Length of Visible Light
Length of Day
Tomorrow will be .
, % of the Moon is Illuminated

Today's Extremes

Country Highs Country Lows

Community

WunderPhotos

Upload Photos

1,851,490 photos uploaded!

WunderBlogs® & News

Nearby

Air Quality

  Air Quality AQ Index Pollutant
Not available.

Snow Depth

Station Depth Elevation

Earthquake Activity

City Distance Mag. Time & Date
Minimum magnitude displayed is 2.5.

Coastal Water Temperatures

Place Temperature

Stations

Nearby Weather Stations

Station Location Temp. Windchill Dew Point Humidity Wind Precip. Elev Updated Type